sensor_id;sensor_type;location;lat;lon;timestamp;temperature;humidity
19665;DHT22;9980;51.020;7.772;2023-05-20T00:00:57;13.40;76.70
19665;DHT22;9980;51.020;7.772;2023-05-20T00:03:23;13.30;77.00
19665;DHT22;9980;51.020;7.772;2023-05-20T00:05:50;13.30;77.30
19665;DHT22;9980;51.020;7.772;2023-05-20T00:08:18;13.20;77.50
19665;DHT22;9980;51.020;7.772;2023-05-20T00:10:44;13.20;77.40
19665;DHT22;9980;51.020;7.772;2023-05-20T00:13:10;13.20;77.00
19665;DHT22;9980;51.020;7.772;2023-05-20T00:15:36;13.10;77.40
19665;DHT22;9980;51.020;7.772;2023-05-20T00:18:03;13.10;77.70
19665;DHT22;9980;51.020;7.772;2023-05-20T00:20:30;13.10;77.60
19665;DHT22;9980;51.020;7.772;2023-05-20T00:22:57;13.00;77.70
19665;DHT22;9980;51.020;7.772;2023-05-20T00:25:23;13.00;78.40
19665;DHT22;9980;51.020;7.772;2023-05-20T00:27:49;13.00;78.00
19665;DHT22;9980;51.020;7.772;2023-05-20T00:30:15;13.00;77.70
19665;DHT22;9980;51.020;7.772;2023-05-20T00:32:41;12.90;77.70
19665;DHT22;9980;51.020;7.772;2023-05-20T00:35:09;12.90;77.70
19665;DHT22;9980;51.020;7.772;2023-05-20T00:37:36;12.90;78.50
19665;DHT22;9980;51.020;7.772;2023-05-20T00:40:02;12.80;78.30
19665;DHT22;9980;51.020;7.772;2023-05-20T00:42:29;12.80;78.30
19665;DHT22;9980;51.020;7.772;2023-05-20T00:44:55;12.70;78.00
19665;DHT22;9980;51.020;7.772;2023-05-20T00:47:28;12.70;78.30
19665;DHT22;9980;51.020;7.772;2023-05-20T00:49:56;12.70;78.50
19665;DHT22;9980;51.020;7.772;2023-05-20T00:52:23;12.70;78.30
19665;DHT22;9980;51.020;7.772;2023-05-20T00:54:51;12.70;78.30
19665;DHT22;9980;51.020;7.772;2023-05-20T00:57:18;12.60;78.60
19665;DHT22;9980;51.020;7.772;2023-05-20T00:59:45;12.60;79.10
19665;DHT22;9980;51.020;7.772;2023-05-20T01:02:11;12.60;78.80
19665;DHT22;9980;51.020;7.772;2023-05-20T01:04:38;12.60;78.50
19665;DHT22;9980;51.020;7.772;2023-05-20T01:07:05;12.50;79.30
19665;DHT22;9980;51.020;7.772;2023-05-20T01:09:32;12.60;79.50
19665;DHT22;9980;51.020;7.772;2023-05-20T01:15:14;12.50;80.10
19665;DHT22;9980;51.020;7.772;2023-05-20T01:17:46;12.40;80.20
19665;DHT22;9980;51.020;7.772;2023-05-20T01:20:16;12.40;80.70
19665;DHT22;9980;51.020;7.772;2023-05-20T01:22:55;12.40;80.60
19665;DHT22;9980;51.020;7.772;2023-05-20T01:25:22;12.40;80.80
19665;DHT22;9980;51.020;7.772;2023-05-20T01:27:51;12.30;80.10
19665;DHT22;9980;51.020;7.772;2023-05-20T01:30:19;12.30;81.00
19665;DHT22;9980;51.020;7.772;2023-05-20T01:32:54;12.30;80.80
19665;DHT22;9980;51.020;7.772;2023-05-20T01:35:24;12.30;80.90
19665;DHT22;9980;51.020;7.772;2023-05-20T01:37:51;12.30;80.80
19665;DHT22;9980;51.020;7.772;2023-05-20T01:40:19;12.20;80.70
19665;DHT22;9980;51.020;7.772;2023-05-20T01:42:46;12.20;81.50
19665;DHT22;9980;51.020;7.772;2023-05-20T01:45:18;12.20;82.00
19665;DHT22;9980;51.020;7.772;2023-05-20T01:47:45;12.20;82.10
19665;DHT22;9980;51.020;7.772;2023-05-20T01:50:11;12.10;82.30
19665;DHT22;9980;51.020;7.772;2023-05-20T01:52:37;12.10;81.90
19665;DHT22;9980;51.020;7.772;2023-05-20T01:55:04;12.10;82.30
19665;DHT22;9980;51.020;7.772;2023-05-20T01:57:31;12.10;82.20
19665;DHT22;9980;51.020;7.772;2023-05-20T01:59:57;12.10;82.10
19665;DHT22;9980;51.020;7.772;2023-05-20T02:02:23;12.10;82.00
19665;DHT22;9980;51.020;7.772;2023-05-20T02:04:52;12.10;82.20
19665;DHT22;9980;51.020;7.772;2023-05-20T02:07:19;12.00;82.10
19665;DHT22;9980;51.020;7.772;2023-05-20T02:09:46;12.10;81.90
19665;DHT22;9980;51.020;7.772;2023-05-20T02:12:12;12.00;82.00
19665;DHT22;9980;51.020;7.772;2023-05-20T02:14:46;12.00;81.90
19665;DHT22;9980;51.020;7.772;2023-05-20T02:17:14;12.00;82.10
19665;DHT22;9980;51.020;7.772;2023-05-20T02:19:43;12.00;82.50
19665;DHT22;9980;51.020;7.772;2023-05-20T02:22:10;12.00;82.10
19665;DHT22;9980;51.020;7.772;2023-05-20T02:24:37;12.00;82.90
19665;DHT22;9980;51.020;7.772;2023-05-20T02:27:03;12.00;83.10
19665;DHT22;9980;51.020;7.772;2023-05-20T02:29:32;11.90;83.20
19665;DHT22;9980;51.020;7.772;2023-05-20T02:31:59;12.00;83.00
19665;DHT22;9980;51.020;7.772;2023-05-20T02:34:27;11.90;83.30
19665;DHT22;9980;51.020;7.772;2023-05-20T02:36:55;11.90;84.00
19665;DHT22;9980;51.020;7.772;2023-05-20T02:39:21;11.90;84.80
19665;DHT22;9980;51.020;7.772;2023-05-20T02:41:49;11.90;84.40
19665;DHT22;9980;51.020;7.772;2023-05-20T02:44:15;11.90;84.40
19665;DHT22;9980;51.020;7.772;2023-05-20T02:46:42;11.90;84.30
19665;DHT22;9980;51.020;7.772;2023-05-20T02:49:08;11.90;84.80
19665;DHT22;9980;51.020;7.772;2023-05-20T02:51:35;11.80;85.00
19665;DHT22;9980;51.020;7.772;2023-05-20T02:54:01;11.80;85.40
19665;DHT22;9980;51.020;7.772;2023-05-20T02:56:28;11.80;85.40
19665;DHT22;9980;51.020;7.772;2023-05-20T02:58:55;11.80;85.10
19665;DHT22;9980;51.020;7.772;2023-05-20T03:01:22;11.80;85.90
19665;DHT22;9980;51.020;7.772;2023-05-20T03:03:49;11.70;85.80
19665;DHT22;9980;51.020;7.772;2023-05-20T03:06:15;11.70;85.50
19665;DHT22;9980;51.020;7.772;2023-05-20T03:08:41;11.70;85.50
19665;DHT22;9980;51.020;7.772;2023-05-20T03:11:07;11.70;85.40
19665;DHT22;9980;51.020;7.772;2023-05-20T03:13:34;11.70;85.50
19665;DHT22;9980;51.020;7.772;2023-05-20T03:16:00;11.70;86.00
19665;DHT22;9980;51.020;7.772;2023-05-20T03:18:27;11.70;86.10
19665;DHT22;9980;51.020;7.772;2023-05-20T03:20:53;11.70;85.80
19665;DHT22;9980;51.020;7.772;2023-05-20T03:23:19;11.70;86.00
19665;DHT22;9980;51.020;7.772;2023-05-20T03:25:46;11.60;85.60
19665;DHT22;9980;51.020;7.772;2023-05-20T03:28:13;11.60;86.30
19665;DHT22;9980;51.020;7.772;2023-05-20T03:30:39;11.60;86.10
19665;DHT22;9980;51.020;7.772;2023-05-20T03:33:05;11.60;86.30
19665;DHT22;9980;51.020;7.772;2023-05-20T03:35:32;11.50;86.00
19665;DHT22;9980;51.020;7.772;2023-05-20T03:37:59;11.50;86.40
19665;DHT22;9980;51.020;7.772;2023-05-20T03:40:27;11.50;85.80
19665;DHT22;9980;51.020;7.772;2023-05-20T03:42:53;11.50;85.80
19665;DHT22;9980;51.020;7.772;2023-05-20T03:45:21;11.50;87.20
19665;DHT22;9980;51.020;7.772;2023-05-20T03:47:56;11.50;88.80
19665;DHT22;9980;51.020;7.772;2023-05-20T03:50:22;11.50;88.40
19665;DHT22;9980;51.020;7.772;2023-05-20T03:52:48;11.50;89.50
19665;DHT22;9980;51.020;7.772;2023-05-20T03:55:17;11.50;89.30
19665;DHT22;9980;51.020;7.772;2023-05-20T03:57:46;11.50;89.80
19665;DHT22;9980;51.020;7.772;2023-05-20T04:00:13;11.50;90.10
19665;DHT22;9980;51.020;7.772;2023-05-20T04:02:43;11.60;90.30
19665;DHT22;9980;51.020;7.772;2023-05-20T04:05:14;11.60;90.30
19665;DHT22;9980;51.020;7.772;2023-05-20T04:07:41;11.60;90.20
19665;DHT22;9980;51.020;7.772;2023-05-20T04:10:08;11.60;90.20
19665;DHT22;9980;51.020;7.772;2023-05-20T04:12:35;11.60;90.60
19665;DHT22;9980;51.020;7.772;2023-05-20T04:15:01;11.60;90.70
19665;DHT22;9980;51.020;7.772;2023-05-20T04:17:32;11.60;91.00
19665;DHT22;9980;51.020;7.772;2023-05-20T04:19:58;11.60;91.10
19665;DHT22;9980;51.020;7.772;2023-05-20T04:22:25;11.70;91.40
19665;DHT22;9980;51.020;7.772;2023-05-20T04:24:52;11.70;91.30
19665;DHT22;9980;51.020;7.772;2023-05-20T04:27:19;11.70;91.50
19665;DHT22;9980;51.020;7.772;2023-05-20T04:29:46;11.80;91.70
19665;DHT22;9980;51.020;7.772;2023-05-20T04:32:15;11.80;92.30
19665;DHT22;9980;51.020;7.772;2023-05-20T04:34:46;11.90;92.60
19665;DHT22;9980;51.020;7.772;2023-05-20T04:37:13;11.90;92.70
19665;DHT22;9980;51.020;7.772;2023-05-20T04:39:40;12.00;93.00
19665;DHT22;9980;51.020;7.772;2023-05-20T04:42:12;12.00;93.30
19665;DHT22;9980;51.020;7.772;2023-05-20T04:44:38;12.10;93.90
19665;DHT22;9980;51.020;7.772;2023-05-20T04:47:07;12.20;93.60
19665;DHT22;9980;51.020;7.772;2023-05-20T04:49:36;12.20;93.50
19665;DHT22;9980;51.020;7.772;2023-05-20T04:52:03;12.30;93.80
19665;DHT22;9980;51.020;7.772;2023-05-20T04:54:31;12.40;93.80
19665;DHT22;9980;51.020;7.772;2023-05-20T04:56:58;12.50;93.90
19665;DHT22;9980;51.020;7.772;2023-05-20T04:59:24;12.50;94.00
19665;DHT22;9980;51.020;7.772;2023-05-20T05:01:51;12.70;94.10
19665;DHT22;9980;51.020;7.772;2023-05-20T05:04:17;12.70;94.00
19665;DHT22;9980;51.020;7.772;2023-05-20T05:06:43;12.80;94.00
19665;DHT22;9980;51.020;7.772;2023-05-20T05:09:09;12.90;94.20
19665;DHT22;9980;51.020;7.772;2023-05-20T05:11:39;13.00;94.00
19665;DHT22;9980;51.020;7.772;2023-05-20T05:14:06;13.00;94.00
19665;DHT22;9980;51.020;7.772;2023-05-20T05:16:34;13.10;94.00
19665;DHT22;9980;51.020;7.772;2023-05-20T05:19:01;13.20;94.00
19665;DHT22;9980;51.020;7.772;2023-05-20T05:21:30;13.30;93.90
19665;DHT22;9980;51.020;7.772;2023-05-20T05:23:56;13.40;93.80
19665;DHT22;9980;51.020;7.772;2023-05-20T05:26:24;13.50;94.00
19665;DHT22;9980;51.020;7.772;2023-05-20T05:28:53;13.60;93.80
19665;DHT22;9980;51.020;7.772;2023-05-20T05:31:20;13.70;93.70
19665;DHT22;9980;51.020;7.772;2023-05-20T05:33:47;13.80;93.70
19665;DHT22;9980;51.020;7.772;2023-05-20T05:36:14;13.80;93.50
19665;DHT22;9980;51.020;7.772;2023-05-20T05:38:40;13.90;93.60
19665;DHT22;9980;51.020;7.772;2023-05-20T05:41:07;14.00;93.60
19665;DHT22;9980;51.020;7.772;2023-05-20T05:43:34;14.10;93.50
19665;DHT22;9980;51.020;7.772;2023-05-20T05:46:01;14.20;93.30
19665;DHT22;9980;51.020;7.772;2023-05-20T05:48:27;14.20;93.30
19665;DHT22;9980;51.020;7.772;2023-05-20T05:50:54;14.30;93.10
19665;DHT22;9980;51.020;7.772;2023-05-20T05:53:20;14.40;93.10
19665;DHT22;9980;51.020;7.772;2023-05-20T05:55:48;14.50;93.00
19665;DHT22;9980;51.020;7.772;2023-05-20T05:58:14;14.60;93.10
19665;DHT22;9980;51.020;7.772;2023-05-20T06:00:41;14.70;93.10
19665;DHT22;9980;51.020;7.772;2023-05-20T06:03:08;14.70;93.20
19665;DHT22;9980;51.020;7.772;2023-05-20T06:05:36;14.80;93.10
19665;DHT22;9980;51.020;7.772;2023-05-20T06:08:02;14.90;93.00
19665;DHT22;9980;51.020;7.772;2023-05-20T06:10:31;14.90;93.10
19665;DHT22;9980;51.020;7.772;2023-05-20T06:12:58;15.00;93.00
19665;DHT22;9980;51.020;7.772;2023-05-20T06:15:26;15.10;92.90
19665;DHT22;9980;51.020;7.772;2023-05-20T06:17:52;15.20;92.80
19665;DHT22;9980;51.020;7.772;2023-05-20T06:20:19;15.30;92.80
19665;DHT22;9980;51.020;7.772;2023-05-20T06:22:45;15.40;92.60
19665;DHT22;9980;51.020;7.772;2023-05-20T06:25:12;15.50;92.60
19665;DHT22;9980;51.020;7.772;2023-05-20T06:27:42;15.60;92.60
19665;DHT22;9980;51.020;7.772;2023-05-20T06:30:11;15.60;92.50
19665;DHT22;9980;51.020;7.772;2023-05-20T06:32:37;15.70;92.50
19665;DHT22;9980;51.020;7.772;2023-05-20T06:35:04;15.80;92.30
19665;DHT22;9980;51.020;7.772;2023-05-20T06:37:32;15.90;92.30
19665;DHT22;9980;51.020;7.772;2023-05-20T06:39:59;16.00;92.10
19665;DHT22;9980;51.020;7.772;2023-05-20T06:42:25;16.10;92.10
19665;DHT22;9980;51.020;7.772;2023-05-20T06:45:02;16.20;92.00
19665;DHT22;9980;51.020;7.772;2023-05-20T06:47:46;16.30;91.90
19665;DHT22;9980;51.020;7.772;2023-05-20T06:50:14;16.40;91.80
19665;DHT22;9980;51.020;7.772;2023-05-20T06:52:41;16.50;91.80
19665;DHT22;9980;51.020;7.772;2023-05-20T06:55:08;16.60;92.00
19665;DHT22;9980;51.020;7.772;2023-05-20T06:57:35;16.70;91.70
19665;DHT22;9980;51.020;7.772;2023-05-20T07:00:03;16.80;91.60
19665;DHT22;9980;51.020;7.772;2023-05-20T07:02:33;16.90;91.50
19665;DHT22;9980;51.020;7.772;2023-05-20T07:04:59;17.00;91.30
19665;DHT22;9980;51.020;7.772;2023-05-20T07:07:26;17.10;91.00
19665;DHT22;9980;51.020;7.772;2023-05-20T07:09:53;17.20;91.20
19665;DHT22;9980;51.020;7.772;2023-05-20T07:12:20;17.30;91.10
19665;DHT22;9980;51.020;7.772;2023-05-20T07:14:46;17.40;91.10
19665;DHT22;9980;51.020;7.772;2023-05-20T07:17:12;17.50;90.90
19665;DHT22;9980;51.020;7.772;2023-05-20T07:19:39;17.60;90.60
19665;DHT22;9980;51.020;7.772;2023-05-20T07:22:05;17.70;90.30
19665;DHT22;9980;51.020;7.772;2023-05-20T07:24:45;17.80;90.40
19665;DHT22;9980;51.020;7.772;2023-05-20T07:27:11;17.90;90.30
19665;DHT22;9980;51.020;7.772;2023-05-20T07:29:37;18.00;90.50
19665;DHT22;9980;51.020;7.772;2023-05-20T07:32:04;18.10;90.30
19665;DHT22;9980;51.020;7.772;2023-05-20T07:34:32;18.10;90.30
19665;DHT22;9980;51.020;7.772;2023-05-20T07:36:58;18.20;90.10
19665;DHT22;9980;51.020;7.772;2023-05-20T07:39:25;18.40;90.40
19665;DHT22;9980;51.020;7.772;2023-05-20T07:41:51;18.50;90.00
19665;DHT22;9980;51.020;7.772;2023-05-20T07:44:18;18.60;90.00
19665;DHT22;9980;51.020;7.772;2023-05-20T07:46:48;18.60;89.70
19665;DHT22;9980;51.020;7.772;2023-05-20T07:49:14;18.70;89.10
19665;DHT22;9980;51.020;7.772;2023-05-20T07:51:41;18.80;88.70
19665;DHT22;9980;51.020;7.772;2023-05-20T07:54:08;18.90;88.50
19665;DHT22;9980;51.020;7.772;2023-05-20T07:56:35;18.90;88.90
19665;DHT22;9980;51.020;7.772;2023-05-20T07:59:01;19.00;88.50
19665;DHT22;9980;51.020;7.772;2023-05-20T08:01:31;19.10;87.70
19665;DHT22;9980;51.020;7.772;2023-05-20T08:04:02;19.10;87.60
19665;DHT22;9980;51.020;7.772;2023-05-20T08:06:29;19.10;88.10
19665;DHT22;9980;51.020;7.772;2023-05-20T08:08:58;19.20;87.30
19665;DHT22;9980;51.020;7.772;2023-05-20T08:11:29;19.30;87.30
19665;DHT22;9980;51.020;7.772;2023-05-20T08:13:57;19.30;87.00
19665;DHT22;9980;51.020;7.772;2023-05-20T08:16:27;19.40;86.80
19665;DHT22;9980;51.020;7.772;2023-05-20T08:18:54;19.40;86.30
19665;DHT22;9980;51.020;7.772;2023-05-20T08:21:21;19.40;86.00
19665;DHT22;9980;51.020;7.772;2023-05-20T08:23:49;19.50;86.30
19665;DHT22;9980;51.020;7.772;2023-05-20T08:26:16;19.50;86.00
19665;DHT22;9980;51.020;7.772;2023-05-20T08:28:43;19.50;85.80
19665;DHT22;9980;51.020;7.772;2023-05-20T08:31:10;19.60;85.60
19665;DHT22;9980;51.020;7.772;2023-05-20T08:33:37;19.50;85.30
19665;DHT22;9980;51.020;7.772;2023-05-20T08:36:06;19.60;85.30
19665;DHT22;9980;51.020;7.772;2023-05-20T08:38:34;19.60;85.10
19665;DHT22;9980;51.020;7.772;2023-05-20T08:41:02;19.60;85.10
19665;DHT22;9980;51.020;7.772;2023-05-20T08:43:30;19.60;85.00
19665;DHT22;9980;51.020;7.772;2023-05-20T08:45:59;19.60;85.10
19665;DHT22;9980;51.020;7.772;2023-05-20T08:48:29;19.60;85.10
19665;DHT22;9980;51.020;7.772;2023-05-20T08:50:57;19.60;84.60
19665;DHT22;9980;51.020;7.772;2023-05-20T08:53:25;19.60;84.60
19665;DHT22;9980;51.020;7.772;2023-05-20T08:55:58;19.60;84.50
19665;DHT22;9980;51.020;7.772;2023-05-20T08:58:29;19.60;84.50
19665;DHT22;9980;51.020;7.772;2023-05-20T09:00:57;19.70;84.60
19665;DHT22;9980;51.020;7.772;2023-05-20T09:03:24;19.70;84.70
19665;DHT22;9980;51.020;7.772;2023-05-20T09:05:52;19.70;85.10
19665;DHT22;9980;51.020;7.772;2023-05-20T09:08:23;19.70;84.60
19665;DHT22;9980;51.020;7.772;2023-05-20T09:10:53;19.80;84.80
19665;DHT22;9980;51.020;7.772;2023-05-20T09:13:20;19.80;85.10
19665;DHT22;9980;51.020;7.772;2023-05-20T09:15:49;19.90;84.60
19665;DHT22;9980;51.020;7.772;2023-05-20T09:18:17;20.00;84.50
19665;DHT22;9980;51.020;7.772;2023-05-20T09:20:49;20.00;84.50
19665;DHT22;9980;51.020;7.772;2023-05-20T09:23:18;20.10;84.30
19665;DHT22;9980;51.020;7.772;2023-05-20T09:25:51;20.20;83.80
19665;DHT22;9980;51.020;7.772;2023-05-20T09:28:21;20.20;84.20
19665;DHT22;9980;51.020;7.772;2023-05-20T09:30:55;20.30;84.50
19665;DHT22;9980;51.020;7.772;2023-05-20T09:33:27;20.40;84.10
19665;DHT22;9980;51.020;7.772;2023-05-20T09:36:09;20.40;83.30
19665;DHT22;9980;51.020;7.772;2023-05-20T09:38:38;20.50;83.80
19665;DHT22;9980;51.020;7.772;2023-05-20T09:41:09;20.60;83.70
19665;DHT22;9980;51.020;7.772;2023-05-20T09:43:41;20.70;83.60
19665;DHT22;9980;51.020;7.772;2023-05-20T09:46:09;20.80;83.70
19665;DHT22;9980;51.020;7.772;2023-05-20T09:48:36;20.90;84.10
19665;DHT22;9980;51.020;7.772;2023-05-20T09:51:04;21.00;84.00
19665;DHT22;9980;51.020;7.772;2023-05-20T09:53:33;21.20;83.50
19665;DHT22;9980;51.020;7.772;2023-05-20T09:56:00;21.20;82.10
19665;DHT22;9980;51.020;7.772;2023-05-20T09:58:28;21.30;81.70
19665;DHT22;9980;51.020;7.772;2023-05-20T10:00:55;21.40;81.60
19665;DHT22;9980;51.020;7.772;2023-05-20T10:03:23;21.50;81.50
19665;DHT22;9980;51.020;7.772;2023-05-20T10:15:32;21.40;80.00
19665;DHT22;9980;51.020;7.772;2023-05-20T10:20:49;21.40;80.00
19665;DHT22;9980;51.020;7.772;2023-05-20T10:23:28;21.30;80.10
19665;DHT22;9980;51.020;7.772;2023-05-20T10:25:57;21.20;79.80
19665;DHT22;9980;51.020;7.772;2023-05-20T10:28:32;21.20;80.10
19665;DHT22;9980;51.020;7.772;2023-05-20T10:31:19;21.20;79.90
19665;DHT22;9980;51.020;7.772;2023-05-20T10:33:48;21.10;79.60
19665;DHT22;9980;51.020;7.772;2023-05-20T10:36:28;21.10;79.80
19665;DHT22;9980;51.020;7.772;2023-05-20T10:38:58;21.00;79.30
19665;DHT22;9980;51.020;7.772;2023-05-20T10:41:27;21.00;79.30
19665;DHT22;9980;51.020;7.772;2023-05-20T10:44:05;21.00;79.90
19665;DHT22;9980;51.020;7.772;2023-05-20T10:46:33;21.00;79.90
19665;DHT22;9980;51.020;7.772;2023-05-20T10:49:20;21.00;80.00
19665;DHT22;9980;51.020;7.772;2023-05-20T10:51:53;21.00;80.20
19665;DHT22;9980;51.020;7.772;2023-05-20T10:54:21;21.00;80.10
19665;DHT22;9980;51.020;7.772;2023-05-20T10:56:52;21.10;80.70
19665;DHT22;9980;51.020;7.772;2023-05-20T10:59:20;21.10;81.00
19665;DHT22;9980;51.020;7.772;2023-05-20T11:01:48;21.10;80.40
19665;DHT22;9980;51.020;7.772;2023-05-20T11:04:15;21.10;80.10
19665;DHT22;9980;51.020;7.772;2023-05-20T11:06:52;21.20;79.90
19665;DHT22;9980;51.020;7.772;2023-05-20T11:09:21;21.20;79.90
19665;DHT22;9980;51.020;7.772;2023-05-20T11:11:49;21.30;79.60
19665;DHT22;9980;51.020;7.772;2023-05-20T11:14:18;21.30;79.90
19665;DHT22;9980;51.020;7.772;2023-05-20T11:16:47;21.30;79.50
19665;DHT22;9980;51.020;7.772;2023-05-20T11:19:17;21.30;79.30
19665;DHT22;9980;51.020;7.772;2023-05-20T11:21:45;21.30;79.30
19665;DHT22;9980;51.020;7.772;2023-05-20T11:24:22;21.30;79.10
19665;DHT22;9980;51.020;7.772;2023-05-20T11:26:52;21.30;78.90
19665;DHT22;9980;51.020;7.772;2023-05-20T11:29:20;21.30;79.00
19665;DHT22;9980;51.020;7.772;2023-05-20T11:31:51;21.30;79.00
19665;DHT22;9980;51.020;7.772;2023-05-20T11:34:21;21.20;79.10
19665;DHT22;9980;51.020;7.772;2023-05-20T11:36:56;21.20;79.00
19665;DHT22;9980;51.020;7.772;2023-05-20T11:39:24;21.10;79.30
19665;DHT22;9980;51.020;7.772;2023-05-20T11:41:53;21.20;79.20
19665;DHT22;9980;51.020;7.772;2023-05-20T11:44:20;21.10;79.20
19665;DHT22;9980;51.020;7.772;2023-05-20T11:46:47;21.20;79.10
19665;DHT22;9980;51.020;7.772;2023-05-20T11:49:15;21.20;79.20
19665;DHT22;9980;51.020;7.772;2023-05-20T11:51:43;21.20;79.50
19665;DHT22;9980;51.020;7.772;2023-05-20T11:54:10;21.20;79.50
19665;DHT22;9980;51.020;7.772;2023-05-20T11:56:38;21.20;79.10
19665;DHT22;9980;51.020;7.772;2023-05-20T11:59:08;21.20;78.70
19665;DHT22;9980;51.020;7.772;2023-05-20T12:01:38;21.30;78.80
19665;DHT22;9980;51.020;7.772;2023-05-20T12:04:11;21.30;78.90
19665;DHT22;9980;51.020;7.772;2023-05-20T12:06:40;21.30;78.60
19665;DHT22;9980;51.020;7.772;2023-05-20T12:09:09;21.30;78.90
19665;DHT22;9980;51.020;7.772;2023-05-20T12:11:37;21.30;78.80
19665;DHT22;9980;51.020;7.772;2023-05-20T12:14:07;21.40;79.10
19665;DHT22;9980;51.020;7.772;2023-05-20T12:16:35;21.40;79.50
19665;DHT22;9980;51.020;7.772;2023-05-20T12:19:03;21.40;79.10
19665;DHT22;9980;51.020;7.772;2023-05-20T12:21:30;21.40;78.20
19665;DHT22;9980;51.020;7.772;2023-05-20T12:23:58;21.40;78.50
19665;DHT22;9980;51.020;7.772;2023-05-20T12:26:28;21.40;78.00
19665;DHT22;9980;51.020;7.772;2023-05-20T12:28:55;21.40;77.90
19665;DHT22;9980;51.020;7.772;2023-05-20T12:31:23;21.40;77.60
19665;DHT22;9980;51.020;7.772;2023-05-20T12:33:50;21.40;77.60
19665;DHT22;9980;51.020;7.772;2023-05-20T12:36:17;21.30;77.80
19665;DHT22;9980;51.020;7.772;2023-05-20T12:38:45;21.30;77.80
19665;DHT22;9980;51.020;7.772;2023-05-20T12:41:12;21.30;77.60
19665;DHT22;9980;51.020;7.772;2023-05-20T12:43:39;21.30;77.50
19665;DHT22;9980;51.020;7.772;2023-05-20T12:46:06;21.30;77.80
19665;DHT22;9980;51.020;7.772;2023-05-20T12:48:33;21.20;77.80
19665;DHT22;9980;51.020;7.772;2023-05-20T12:51:00;21.20;78.00
19665;DHT22;9980;51.020;7.772;2023-05-20T12:53:27;21.20;78.40
19665;DHT22;9980;51.020;7.772;2023-05-20T12:55:54;21.20;78.70
19665;DHT22;9980;51.020;7.772;2023-05-20T12:58:21;21.20;78.50
19665;DHT22;9980;51.020;7.772;2023-05-20T13:00:48;21.20;78.10
19665;DHT22;9980;51.020;7.772;2023-05-20T13:03:14;21.20;78.50
19665;DHT22;9980;51.020;7.772;2023-05-20T13:05:42;21.20;78.50
19665;DHT22;9980;51.020;7.772;2023-05-20T13:08:09;21.20;78.30
19665;DHT22;9980;51.020;7.772;2023-05-20T13:10:38;21.20;78.10
19665;DHT22;9980;51.020;7.772;2023-05-20T13:13:05;21.10;78.10
19665;DHT22;9980;51.020;7.772;2023-05-20T13:15:32;21.10;77.60
19665;DHT22;9980;51.020;7.772;2023-05-20T13:17:59;21.10;77.80
19665;DHT22;9980;51.020;7.772;2023-05-20T13:20:28;21.10;77.80
19665;DHT22;9980;51.020;7.772;2023-05-20T13:22:55;21.00;77.90
19665;DHT22;9980;51.020;7.772;2023-05-20T13:25:22;21.00;77.50
19665;DHT22;9980;51.020;7.772;2023-05-20T13:27:49;21.00;77.80
19665;DHT22;9980;51.020;7.772;2023-05-20T13:30:16;21.00;78.00
19665;DHT22;9980;51.020;7.772;2023-05-20T13:32:43;21.00;77.90
19665;DHT22;9980;51.020;7.772;2023-05-20T13:35:10;21.00;78.50
19665;DHT22;9980;51.020;7.772;2023-05-20T13:37:38;20.90;79.00
19665;DHT22;9980;51.020;7.772;2023-05-20T13:40:05;20.90;78.70
19665;DHT22;9980;51.020;7.772;2023-05-20T13:42:33;20.90;78.80
19665;DHT22;9980;51.020;7.772;2023-05-20T13:45:00;20.90;78.90
19665;DHT22;9980;51.020;7.772;2023-05-20T13:47:27;20.90;79.20
19665;DHT22;9980;51.020;7.772;2023-05-20T13:49:54;20.90;78.80
19665;DHT22;9980;51.020;7.772;2023-05-20T13:52:21;20.90;79.00
19665;DHT22;9980;51.020;7.772;2023-05-20T13:54:48;20.90;79.40
19665;DHT22;9980;51.020;7.772;2023-05-20T13:57:15;20.90;79.70
19665;DHT22;9980;51.020;7.772;2023-05-20T13:59:42;21.00;79.40
19665;DHT22;9980;51.020;7.772;2023-05-20T14:02:08;21.00;79.40
19665;DHT22;9980;51.020;7.772;2023-05-20T14:04:36;21.00;79.50
19665;DHT22;9980;51.020;7.772;2023-05-20T14:07:05;21.10;78.50
19665;DHT22;9980;51.020;7.772;2023-05-20T14:09:35;21.10;78.40
19665;DHT22;9980;51.020;7.772;2023-05-20T14:12:03;21.10;78.50
19665;DHT22;9980;51.020;7.772;2023-05-20T14:14:31;21.10;78.40
19665;DHT22;9980;51.020;7.772;2023-05-20T14:16:58;21.10;78.00
19665;DHT22;9980;51.020;7.772;2023-05-20T14:19:25;21.20;79.40
19665;DHT22;9980;51.020;7.772;2023-05-20T14:21:53;21.20;78.10
19665;DHT22;9980;51.020;7.772;2023-05-20T14:24:19;21.10;78.00
19665;DHT22;9980;51.020;7.772;2023-05-20T14:26:49;21.20;77.80
19665;DHT22;9980;51.020;7.772;2023-05-20T14:29:16;21.20;77.80
19665;DHT22;9980;51.020;7.772;2023-05-20T14:31:43;21.20;77.70
19665;DHT22;9980;51.020;7.772;2023-05-20T14:34:10;21.20;78.30
19665;DHT22;9980;51.020;7.772;2023-05-20T14:36:37;21.20;78.20
19665;DHT22;9980;51.020;7.772;2023-05-20T14:39:04;21.20;78.10
19665;DHT22;9980;51.020;7.772;2023-05-20T14:41:31;21.20;78.30
19665;DHT22;9980;51.020;7.772;2023-05-20T14:43:58;21.20;78.10
19665;DHT22;9980;51.020;7.772;2023-05-20T14:46:25;21.20;78.00
19665;DHT22;9980;51.020;7.772;2023-05-20T14:48:52;21.20;78.30
19665;DHT22;9980;51.020;7.772;2023-05-20T14:51:20;21.20;77.70
19665;DHT22;9980;51.020;7.772;2023-05-20T14:53:46;21.20;77.90
19665;DHT22;9980;51.020;7.772;2023-05-20T14:56:13;21.20;78.00
19665;DHT22;9980;51.020;7.772;2023-05-20T14:58:40;21.20;78.30
19665;DHT22;9980;51.020;7.772;2023-05-20T15:01:07;21.20;78.10
19665;DHT22;9980;51.020;7.772;2023-05-20T15:03:37;21.20;78.20
19665;DHT22;9980;51.020;7.772;2023-05-20T15:06:04;21.20;78.50
19665;DHT22;9980;51.020;7.772;2023-05-20T15:08:31;21.20;78.50
19665;DHT22;9980;51.020;7.772;2023-05-20T15:10:58;21.20;78.60
19665;DHT22;9980;51.020;7.772;2023-05-20T15:13:25;21.20;78.70
19665;DHT22;9980;51.020;7.772;2023-05-20T15:15:52;21.20;78.50
19665;DHT22;9980;51.020;7.772;2023-05-20T15:18:19;21.20;78.80
19665;DHT22;9980;51.020;7.772;2023-05-20T15:20:46;21.20;79.00
19665;DHT22;9980;51.020;7.772;2023-05-20T15:23:13;21.10;79.00
19665;DHT22;9980;51.020;7.772;2023-05-20T15:25:40;21.10;78.60
19665;DHT22;9980;51.020;7.772;2023-05-20T15:28:07;21.10;78.90
19665;DHT22;9980;51.020;7.772;2023-05-20T15:30:34;21.10;79.00
19665;DHT22;9980;51.020;7.772;2023-05-20T15:33:01;21.10;79.20
19665;DHT22;9980;51.020;7.772;2023-05-20T15:35:29;21.10;79.10
19665;DHT22;9980;51.020;7.772;2023-05-20T15:37:55;21.00;79.10
19665;DHT22;9980;51.020;7.772;2023-05-20T15:40:22;21.00;79.10
19665;DHT22;9980;51.020;7.772;2023-05-20T15:42:49;21.00;78.80
19665;DHT22;9980;51.020;7.772;2023-05-20T15:45:17;21.00;78.90
19665;DHT22;9980;51.020;7.772;2023-05-20T15:47:44;20.90;79.30
19665;DHT22;9980;51.020;7.772;2023-05-20T15:50:11;20.90;79.50
19665;DHT22;9980;51.020;7.772;2023-05-20T15:52:38;20.90;79.60
19665;DHT22;9980;51.020;7.772;2023-05-20T15:55:06;20.90;79.60
19665;DHT22;9980;51.020;7.772;2023-05-20T15:57:33;20.90;79.50
19665;DHT22;9980;51.020;7.772;2023-05-20T16:00:00;20.90;79.60
19665;DHT22;9980;51.020;7.772;2023-05-20T16:02:30;20.90;79.50
19665;DHT22;9980;51.020;7.772;2023-05-20T16:05:02;20.80;80.30